createdAt,value
2022-08-27T00:00:13.886Z,99467.34
2022-08-27T00:02:41.574Z,99463.75
2022-08-27T00:05:09.569Z,99465.81
2022-08-27T00:07:36.470Z,99464.34
2022-08-27T00:10:04.630Z,99469.84
2022-08-27T00:12:31.483Z,99463.88
2022-08-27T00:14:59.149Z,99476.22
2022-08-27T00:17:26.517Z,99465.25
2022-08-27T00:19:53.414Z,99465.09
2022-08-27T00:22:22.785Z,99461.03
2022-08-27T00:24:49.938Z,99471.75
2022-08-27T00:27:16.949Z,99475.78
2022-08-27T00:29:44.103Z,99481.22
2022-08-27T00:32:11.498Z,99478.13
2022-08-27T00:34:38.406Z,99473.91
2022-08-27T00:37:06.962Z,99484.00
2022-08-27T00:39:34.747Z,99488.53
2022-08-27T00:42:01.611Z,99478.06
2022-08-27T00:44:28.800Z,99478.22
2022-08-27T00:46:59.354Z,99479.34
2022-08-27T00:49:43.763Z,99482.44
2022-08-27T00:52:20.673Z,99476.69
2022-08-27T00:54:48.267Z,99478.56
2022-08-27T00:57:15.623Z,99488.03
2022-08-27T00:59:42.739Z,99487.28
2022-08-27T01:02:18.981Z,99488.38
2022-08-27T01:04:48.738Z,99487.88
2022-08-27T01:07:16.054Z,99481.03
2022-08-27T01:09:43.435Z,99484.78
2022-08-27T01:12:11.431Z,99481.94
2022-08-27T01:14:39.959Z,99480.19
2022-08-27T01:17:09.056Z,99479.13
2022-08-27T01:19:39.299Z,99478.69
2022-08-27T01:22:09.252Z,99473.81
2022-08-27T01:24:48.643Z,99469.13
2022-08-27T01:27:20.737Z,99471.09
2022-08-27T01:29:48.633Z,99466.75
2022-08-27T01:32:17.548Z,99475.03
2022-08-27T01:34:45.008Z,99470.34
2022-08-27T01:37:13.470Z,99468.28
2022-08-27T01:39:41.313Z,99467.53
2022-08-27T01:42:09.892Z,99468.41
2022-08-27T01:44:49.434Z,99454.22
2022-08-27T01:47:17.884Z,99466.84
2022-08-27T01:49:45.389Z,99462.78
2022-08-27T01:52:12.604Z,99461.81
2022-08-27T01:54:39.477Z,99471.59
2022-08-27T01:57:06.850Z,99464.91
2022-08-27T01:59:39.477Z,99462.59
2022-08-27T02:02:07.778Z,99464.91
2022-08-27T02:04:34.743Z,99467.72
2022-08-27T02:07:01.568Z,99463.50
2022-08-27T02:09:29.053Z,99466.75
2022-08-27T02:11:55.912Z,99461.47
2022-08-27T02:14:23.297Z,99463.91
2022-08-27T02:16:52.582Z,99463.91
2022-08-27T02:19:20.364Z,99464.69
2022-08-27T02:21:47.527Z,99474.34
2022-08-27T02:24:14.936Z,99470.13
2022-08-27T02:26:42.163Z,99476.03
2022-08-27T02:29:09.581Z,99475.03
2022-08-27T02:31:37.131Z,99476.44
2022-08-27T02:34:04.560Z,99470.47
2022-08-27T02:36:31.570Z,99475.91
2022-08-27T02:38:59.678Z,99473.06
2022-08-27T02:41:27.546Z,99473.94
2022-08-27T02:43:54.406Z,99478.28
2022-08-27T02:46:21.569Z,99477.28
2022-08-27T02:48:48.539Z,99484.75
2022-08-27T02:51:15.431Z,99476.81
2022-08-27T02:53:44.056Z,99473.22
2022-08-27T02:56:12.651Z,99472.84
2022-08-27T02:58:41.507Z,99469.72
2022-08-27T03:01:13.672Z,99462.38
2022-08-27T03:03:41.956Z,99470.09
2022-08-27T03:06:09.124Z,99466.97
2022-08-27T03:08:51.980Z,99462.47
2022-08-27T03:11:23.176Z,99460.91
2022-08-27T03:13:50.140Z,99464.03
2022-08-27T03:16:17.086Z,99460.28
2022-08-27T03:18:44.491Z,99465.00
2022-08-27T03:21:16.676Z,99465.28
2022-08-27T03:23:43.934Z,99465.59
2022-08-27T03:26:11.681Z,99466.19
2022-08-27T03:28:38.733Z,99466.81
2022-08-27T03:31:07.904Z,99474.81
2022-08-27T03:33:36.782Z,99473.84
2022-08-27T03:36:04.461Z,99472.31
2022-08-27T03:38:31.944Z,99474.47
2022-08-27T03:40:58.970Z,99462.31
2022-08-27T03:43:25.828Z,99461.03
2022-08-27T03:46:01.370Z,99464.28
2022-08-27T03:48:32.903Z,99451.94
2022-08-27T03:51:05.286Z,99456.22
2022-08-27T03:53:32.363Z,99450.47
2022-08-27T03:55:59.229Z,99449.97
2022-08-27T03:58:26.464Z,99452.41
2022-08-27T04:00:53.477Z,99454.00
2022-08-27T04:03:20.326Z,99457.22
2022-08-27T04:05:51.864Z,99452.22
2022-08-27T04:08:19.075Z,99452.91
2022-08-27T04:10:46.590Z,99461.81
2022-08-27T04:13:13.833Z,99457.63
2022-08-27T04:15:44.739Z,99460.06
2022-08-27T04:18:12.740Z,99463.00
2022-08-27T04:20:39.961Z,99477.00
2022-08-27T04:23:07.001Z,99468.28
2022-08-27T04:25:33.979Z,99467.81
2022-08-27T04:28:01.141Z,99469.34
2022-08-27T04:30:28.059Z,99474.03
2022-08-27T04:32:54.971Z,99474.28
2022-08-27T04:35:22.242Z,99483.94
2022-08-27T04:37:49.099Z,99482.31
2022-08-27T04:40:16.148Z,99488.47
2022-08-27T04:42:44.156Z,99489.31
2022-08-27T04:45:11.183Z,99495.50
2022-08-27T04:47:38.069Z,99494.22
2022-08-27T04:50:05.825Z,99494.19
2022-08-27T04:52:32.748Z,99501.97
2022-08-27T04:55:00.044Z,99503.75
2022-08-27T04:57:27.961Z,99502.50
2022-08-27T04:59:55.034Z,99506.31
2022-08-27T05:02:21.923Z,99508.13
2022-08-27T05:04:49.130Z,99525.81
2022-08-27T05:07:16.024Z,99512.63
2022-08-27T05:09:42.878Z,99516.94
2022-08-27T05:12:10.015Z,99512.13
2022-08-27T05:14:37.092Z,99518.72
2022-08-27T05:17:04.049Z,99525.28
2022-08-27T05:19:31.470Z,99526.53
2022-08-27T05:21:58.489Z,99525.47
2022-08-27T05:24:25.354Z,99530.28
2022-08-27T05:27:37.171Z,99538.44
2022-08-27T05:30:04.486Z,99536.41
2022-08-27T05:32:31.494Z,99531.41
2022-08-27T05:34:58.565Z,99534.22
2022-08-27T05:37:25.726Z,99544.84
2022-08-27T05:39:52.855Z,99544.97
2022-08-27T05:42:19.866Z,99547.47
2022-08-27T05:44:47.094Z,99546.72
2022-08-27T05:47:13.964Z,99546.56
2022-08-27T05:49:40.865Z,99548.47
2022-08-27T05:52:09.558Z,99548.78
2022-08-27T05:54:36.735Z,99549.84
2022-08-27T05:57:03.773Z,99553.13
2022-08-27T05:59:49.679Z,99554.53
2022-08-27T06:02:16.731Z,99545.53
2022-08-27T06:04:47.295Z,99547.59
2022-08-27T06:07:15.595Z,99544.44
2022-08-27T06:09:43.551Z,99546.94
2022-08-27T06:12:10.854Z,99546.41
2022-08-27T06:14:39.526Z,99543.56
2022-08-27T06:17:06.679Z,99538.44
2022-08-27T06:19:34.941Z,99541.28
2022-08-27T06:22:09.887Z,99545.75
2022-08-27T06:24:39.760Z,99548.88
2022-08-27T06:27:06.780Z,99555.84
2022-08-27T06:29:35.299Z,99557.13
2022-08-27T06:32:02.821Z,99555.63
2022-08-27T06:34:29.953Z,99557.41
2022-08-27T06:36:57.052Z,99559.72
2022-08-27T06:39:24.622Z,99563.28
2022-08-27T06:41:51.578Z,99572.97
2022-08-27T06:44:22.228Z,99581.75
2022-08-27T06:46:49.451Z,99578.72
2022-08-27T06:49:16.566Z,99574.28
2022-08-27T06:51:45.961Z,99576.09
2022-08-27T06:54:13.989Z,99582.72
2022-08-27T06:56:41.762Z,99577.38
2022-08-27T06:59:11.422Z,99570.31
2022-08-27T07:01:41.875Z,99578.44
2022-08-27T07:04:10.432Z,99576.72
2022-08-27T07:06:37.791Z,99576.06
2022-08-27T07:09:05.895Z,99576.66
2022-08-27T07:11:33.251Z,99576.28
2022-08-27T07:14:00.583Z,99575.16
2022-08-27T07:16:33.935Z,99577.38
2022-08-27T07:19:03.697Z,99579.88
2022-08-27T07:21:33.519Z,99577.94
2022-08-27T07:24:04.960Z,99576.28
2022-08-27T07:26:42.058Z,99587.31
2022-08-27T07:29:17.910Z,99582.22
2022-08-27T07:31:47.795Z,99570.78
2022-08-27T07:34:19.705Z,99583.00
2022-08-27T07:36:47.273Z,99583.09
2022-08-27T07:39:16.778Z,99578.94
2022-08-27T07:42:03.893Z,99584.53
2022-08-27T07:44:34.443Z,99593.72
2022-08-27T07:47:02.212Z,99598.97
2022-08-27T07:49:29.562Z,99601.44
2022-08-27T07:51:57.100Z,99599.25
2022-08-27T07:54:25.376Z,99608.78
2022-08-27T07:56:55.379Z,99601.56
2022-08-27T07:59:24.355Z,99607.63
2022-08-27T08:01:51.896Z,99618.81
2022-08-27T08:04:20.517Z,99621.84
2022-08-27T08:06:48.625Z,99617.53
2022-08-27T08:09:15.803Z,99615.47
2022-08-27T08:11:42.823Z,99609.44
2022-08-27T08:14:10.016Z,99603.16
2022-08-27T08:16:36.895Z,99611.13
2022-08-27T08:19:03.770Z,99609.72
2022-08-27T08:21:30.991Z,99611.34
2022-08-27T08:23:58.147Z,99608.78
2022-08-27T08:26:25.046Z,99609.53
2022-08-27T08:28:52.228Z,99609.94
2022-08-27T08:31:19.175Z,99613.34
2022-08-27T08:33:48.184Z,99621.00
2022-08-27T08:36:16.132Z,99625.91
2022-08-27T08:38:43.611Z,99628.97
2022-08-27T08:41:20.605Z,99630.34
2022-08-27T08:43:51.769Z,99627.50
2022-08-27T08:46:24.888Z,99633.22
2022-08-27T08:48:56.123Z,99630.28
2022-08-27T08:51:32.977Z,99625.44
2022-08-27T08:54:03.162Z,99627.00
2022-08-27T08:56:36.269Z,99626.78
2022-08-27T08:59:15.745Z,99623.44
2022-08-27T09:01:45.547Z,99633.00
2022-08-27T09:04:13.310Z,99623.31
2022-08-27T09:06:59.044Z,99622.22
2022-08-27T09:09:37.965Z,99613.72
2022-08-27T09:12:16.588Z,99617.78
2022-08-27T09:15:05.761Z,99618.00
2022-08-27T09:17:33.606Z,99623.63
2022-08-27T09:20:00.903Z,99620.28
2022-08-27T09:22:49.008Z,99615.88
2022-08-27T09:25:20.700Z,99622.69
2022-08-27T09:27:48.910Z,99619.25
2022-08-27T09:30:21.822Z,99618.75
2022-08-27T09:32:57.814Z,99621.19
2022-08-27T09:35:27.283Z,99606.25
2022-08-27T09:37:55.505Z,99623.78
2022-08-27T09:40:32.293Z,99612.97
2022-08-27T09:43:07.466Z,99618.09
2022-08-27T09:45:34.954Z,99619.59
2022-08-27T09:48:04.576Z,99610.72
2022-08-27T09:50:35.331Z,99609.59
2022-08-27T09:53:03.311Z,99608.41
2022-08-27T09:55:43.790Z,99610.78
2022-08-27T09:58:22.759Z,99610.28
2022-08-27T10:00:57.869Z,99598.53
2022-08-27T10:03:26.535Z,99613.25
2022-08-27T10:05:56.593Z,99603.66
2022-08-27T10:08:25.288Z,99607.94
2022-08-27T10:10:57.048Z,99606.16
2022-08-27T10:13:27.787Z,99597.84
2022-08-27T10:15:54.888Z,99598.69
2022-08-27T10:18:38.677Z,99592.78
2022-08-27T10:21:11.760Z,99593.16
2022-08-27T10:23:45.803Z,99580.38
2022-08-27T10:26:14.014Z,99594.53
2022-08-27T10:28:44.758Z,99591.75
2022-08-27T10:31:25.022Z,99585.63
2022-08-27T10:34:01.496Z,99585.75
2022-08-27T10:36:48.942Z,99583.94
2022-08-27T10:39:22.785Z,99582.47
2022-08-27T10:41:54.668Z,99580.91
2022-08-27T10:44:21.868Z,99576.75
2022-08-27T10:47:14.525Z,99581.53
2022-08-27T10:49:47.478Z,99587.28
2022-08-27T10:52:14.790Z,99583.78
2022-08-27T10:54:51.492Z,99586.34
2022-08-27T10:57:45.494Z,99581.44
2022-08-27T11:00:17.400Z,99574.63
2022-08-27T11:02:47.794Z,99580.66
2022-08-27T11:05:20.688Z,99582.03
2022-08-27T11:07:51.471Z,99571.34
2022-08-27T11:10:25.413Z,99569.00
2022-08-27T11:12:54.160Z,99566.50
2022-08-27T11:15:24.835Z,99564.91
2022-08-27T11:17:58.761Z,99563.38
2022-08-27T11:20:31.108Z,99567.03
2022-08-27T11:22:58.094Z,99565.06
2022-08-27T11:25:32.602Z,99551.69
2022-08-27T11:28:00.498Z,99558.25
2022-08-27T11:30:31.607Z,99555.03
2022-08-27T11:33:06.683Z,99551.94
2022-08-27T11:36:01.173Z,99542.78
2022-08-27T11:38:28.069Z,99539.44
2022-08-27T11:40:55.436Z,99530.63
2022-08-27T11:43:24.808Z,99536.09
2022-08-27T11:45:57.544Z,99526.97
2022-08-27T11:48:32.640Z,99531.94
2022-08-27T11:51:07.243Z,99533.16
2022-08-27T11:53:52.517Z,99523.59
2022-08-27T11:56:36.882Z,99531.63
2022-08-27T11:59:23.426Z,99524.63
2022-08-27T12:01:52.499Z,99525.81
2022-08-27T12:04:40.122Z,99524.28
2022-08-27T12:07:21.806Z,99517.75
2022-08-27T12:09:51.678Z,99525.41
2022-08-27T12:12:30.921Z,99523.16
2022-08-27T12:15:36.494Z,99525.81
2022-08-27T12:18:03.404Z,99525.41
2022-08-27T12:20:51.970Z,99526.09
2022-08-27T12:23:44.744Z,99534.44
2022-08-27T12:26:35.440Z,99530.56
2022-08-27T12:29:21.102Z,99523.66
2022-08-27T12:32:03.449Z,99529.41
2022-08-27T12:34:31.891Z,99521.41
2022-08-27T12:37:01.779Z,99519.09
2022-08-27T12:39:38.260Z,99529.00
2022-08-27T12:42:12.485Z,99513.75
2022-08-27T12:44:39.999Z,99523.31
2022-08-27T12:47:10.549Z,99517.63
2022-08-27T12:49:41.968Z,99523.75
2022-08-27T12:52:20.283Z,99516.53
2022-08-27T12:54:50.182Z,99510.84
2022-08-27T12:57:20.446Z,99506.94
2022-08-27T12:59:47.372Z,99510.66
2022-08-27T13:02:23.443Z,99514.03
2022-08-27T13:04:51.510Z,99508.19
2022-08-27T13:07:33.007Z,99514.31
2022-08-27T13:10:09.634Z,99508.31
2022-08-27T13:12:36.474Z,99504.09
2022-08-27T13:15:10.908Z,99498.41
2022-08-27T13:17:43.705Z,99504.97
2022-08-27T13:20:15.300Z,99493.22
2022-08-27T13:22:43.775Z,99499.38
2022-08-27T13:25:39.638Z,99501.38
2022-08-27T13:28:11.761Z,99496.88
2022-08-27T13:30:44.737Z,99486.53
2022-08-27T13:33:17.499Z,99471.97
2022-08-27T13:35:52.649Z,99481.66
2022-08-27T13:38:21.884Z,99480.41
2022-08-27T13:40:59.993Z,99485.06
2022-08-27T13:43:33.335Z,99475.44
2022-08-27T13:46:03.292Z,99482.66
2022-08-27T13:48:30.529Z,99483.53
2022-08-27T13:50:57.998Z,99488.88
2022-08-27T13:53:48.998Z,99488.09
2022-08-27T13:56:25.451Z,99492.94
2022-08-27T13:58:52.387Z,99488.69
2022-08-27T14:01:28.091Z,99496.25
2022-08-27T14:04:00.554Z,99487.13
2022-08-27T14:06:42.573Z,99486.03
2022-08-27T14:09:17.995Z,99483.34
2022-08-27T14:11:45.783Z,99486.03
2022-08-27T14:14:13.088Z,99488.69
2022-08-27T14:16:40.434Z,99486.03
2022-08-27T14:19:07.690Z,99492.81
2022-08-27T14:21:36.017Z,99489.34
2022-08-27T14:24:03.278Z,99493.16
2022-08-27T14:26:30.704Z,99497.81
2022-08-27T14:28:57.691Z,99496.25
2022-08-27T14:31:25.117Z,99493.34
2022-08-27T14:33:54.535Z,99500.94
2022-08-27T14:36:22.987Z,99501.72
2022-08-27T14:38:51.174Z,99496.25
2022-08-27T14:41:21.569Z,99495.16
2022-08-27T14:43:49.330Z,99493.84
2022-08-27T14:46:24.045Z,99501.78
2022-08-27T14:48:53.722Z,99492.16
2022-08-27T14:51:23.956Z,99486.00
2022-08-27T14:53:51.744Z,99492.00
2022-08-27T14:56:20.008Z,99483.28
2022-08-27T14:58:47.174Z,99490.50
2022-08-27T15:01:14.519Z,99495.28
2022-08-27T15:03:47.418Z,99482.97
2022-08-27T15:06:14.940Z,99486.63
2022-08-27T15:08:42.243Z,99480.44
2022-08-27T15:11:18.726Z,99487.31
2022-08-27T15:13:46.119Z,99477.31
2022-08-27T15:16:14.711Z,99481.88
2022-08-27T15:18:41.618Z,99481.44
2022-08-27T15:21:08.796Z,99476.69
2022-08-27T15:23:37.283Z,99469.81
2022-08-27T15:26:04.203Z,99464.78
2022-08-27T15:28:31.409Z,99460.22
2022-08-27T15:30:59.700Z,99452.53
2022-08-27T15:33:26.768Z,99456.75
2022-08-27T15:35:54.461Z,99453.16
2022-08-27T15:38:21.407Z,99458.25
2022-08-27T15:40:48.289Z,99466.69
2022-08-27T15:43:16.871Z,99459.59
2022-08-27T15:45:45.462Z,99461.03
2022-08-27T15:48:15.288Z,99460.94
2022-08-27T15:50:42.696Z,99457.38
2022-08-27T15:53:09.982Z,99463.81
2022-08-27T15:55:38.235Z,99459.59
2022-08-27T15:58:05.945Z,99462.72
2022-08-27T16:00:33.862Z,99462.41
2022-08-27T16:03:03.981Z,99459.84
2022-08-27T16:05:33.800Z,99466.50
2022-08-27T16:08:00.698Z,99468.94
2022-08-27T16:10:27.952Z,99467.13
2022-08-27T16:12:55.235Z,99468.47
2022-08-27T16:15:22.286Z,99460.53
2022-08-27T16:17:52.958Z,99480.22
2022-08-27T16:20:21.443Z,99472.44
2022-08-27T16:22:48.734Z,99473.66
2022-08-27T16:25:20.669Z,99474.41
2022-08-27T16:27:48.017Z,99479.00
2022-08-27T16:30:15.476Z,99483.53
2022-08-27T16:32:46.635Z,99483.13
2022-08-27T16:35:15.553Z,99485.66
2022-08-27T16:37:42.883Z,99479.13
2022-08-27T16:40:11.614Z,99487.56
2022-08-27T16:42:39.992Z,99487.13
2022-08-27T16:45:08.220Z,99489.78
2022-08-27T16:47:56.366Z,99484.69
2022-08-27T16:50:35.912Z,99491.72
2022-08-27T16:53:07.076Z,99491.94
2022-08-27T16:55:34.320Z,99488.72
2022-08-27T16:58:01.421Z,99496.94
2022-08-27T17:00:30.047Z,99502.06
2022-08-27T17:02:57.931Z,99498.72
2022-08-27T17:05:34.021Z,99506.84
2022-08-27T17:08:02.484Z,99499.28
2022-08-27T17:10:44.852Z,99495.59
2022-08-27T17:13:16.408Z,99499.94
2022-08-27T17:15:43.368Z,99498.59
2022-08-27T17:18:10.837Z,99499.59
2022-08-27T17:20:38.877Z,99500.91
2022-08-27T17:23:06.741Z,99503.03
2022-08-27T17:25:34.019Z,99504.00
2022-08-27T17:28:01.134Z,99504.97
2022-08-27T17:30:28.346Z,99504.41
2022-08-27T17:32:55.218Z,99509.19
2022-08-27T17:35:24.426Z,99515.91
2022-08-27T17:37:51.336Z,99525.22
2022-08-27T17:40:18.245Z,99524.47
2022-08-27T17:42:45.563Z,99534.50
2022-08-27T17:45:18.725Z,99534.38
2022-08-27T17:47:55.142Z,99542.28
2022-08-27T17:50:24.785Z,99538.69
2022-08-27T17:52:58.939Z,99550.00
2022-08-27T17:55:31.774Z,99557.53
2022-08-27T17:58:01.640Z,99565.84
2022-08-27T18:00:28.681Z,99569.59
2022-08-27T18:02:57.843Z,99575.56
2022-08-27T18:05:28.439Z,99574.31
2022-08-27T18:08:04.377Z,99585.63
2022-08-27T18:10:35.437Z,99585.19
2022-08-27T18:13:02.567Z,99578.13
2022-08-27T18:15:33.260Z,99582.69
2022-08-27T18:18:03.376Z,99578.00
2022-08-27T18:20:34.383Z,99581.81
2022-08-27T18:23:04.942Z,99582.91
2022-08-27T18:25:35.960Z,99583.19
2022-08-27T18:28:07.027Z,99584.63
2022-08-27T18:30:39.696Z,99585.28
2022-08-27T18:33:07.442Z,99585.28
2022-08-27T18:35:34.878Z,99589.69
2022-08-27T18:38:01.998Z,99594.88
2022-08-27T18:40:31.762Z,99595.38
2022-08-27T18:42:58.924Z,99592.09
2022-08-27T18:45:28.448Z,99587.59
2022-08-27T18:47:57.473Z,99593.44
2022-08-27T18:50:24.886Z,99599.88
2022-08-27T18:52:53.144Z,99597.69
2022-08-27T18:55:22.849Z,99599.75
2022-08-27T18:57:49.736Z,99597.72
2022-08-27T19:00:19.108Z,99597.25
2022-08-27T19:02:51.433Z,99590.69
2022-08-27T19:05:20.769Z,99595.88
2022-08-27T19:07:47.965Z,99600.56
2022-08-27T19:10:16.107Z,99594.94
2022-08-27T19:12:43.566Z,99597.44
2022-08-27T19:15:12.054Z,99587.78
2022-08-27T19:17:40.206Z,99587.63
2022-08-27T19:20:07.505Z,99592.47
2022-08-27T19:22:34.717Z,99591.56
2022-08-27T19:25:01.608Z,99592.47
2022-08-27T19:27:30.782Z,99589.22
2022-08-27T19:29:58.133Z,99583.59
2022-08-27T19:32:25.131Z,99575.78
2022-08-27T19:35:16.655Z,99580.91
2022-08-27T19:37:46.387Z,99572.47
2022-08-27T19:40:21.991Z,99575.31
2022-08-27T19:42:49.556Z,99576.53
2022-08-27T19:45:23.209Z,99560.59
2022-08-27T19:47:52.367Z,99565.47
2022-08-27T19:50:19.409Z,99565.47
2022-08-27T19:52:47.499Z,99560.00
2022-08-27T19:55:14.970Z,99554.69
2022-08-27T19:57:42.569Z,99555.28
2022-08-27T20:00:10.485Z,99558.09
2022-08-27T20:02:38.324Z,99559.34
2022-08-27T20:05:21.305Z,99565.28
2022-08-27T20:07:49.976Z,99572.31
2022-08-27T20:10:18.153Z,99573.69
2022-08-27T20:12:45.335Z,99586.00
2022-08-27T20:15:12.770Z,99580.56
2022-08-27T20:17:40.343Z,99586.16
2022-08-27T20:20:08.159Z,99597.84
2022-08-27T20:22:35.288Z,99601.91
2022-08-27T20:25:02.342Z,99596.75
2022-08-27T20:27:30.372Z,99599.50
2022-08-27T20:29:57.782Z,99597.81
2022-08-27T20:32:29.670Z,99597.13
2022-08-27T20:34:57.552Z,99603.56
2022-08-27T20:37:24.582Z,99602.78
2022-08-27T20:39:52.708Z,99593.56
2022-08-27T20:42:20.270Z,99591.53
2022-08-27T20:44:47.715Z,99594.47
2022-08-27T20:47:15.615Z,99601.63
2022-08-27T20:49:44.720Z,99602.25
2022-08-27T20:52:13.049Z,99614.56
2022-08-27T20:54:40.360Z,99609.25
2022-08-27T20:57:08.882Z,99609.59
2022-08-27T20:59:54.354Z,99613.47
2022-08-27T21:02:23.400Z,99617.38
2022-08-27T21:04:51.036Z,99624.09
2022-08-27T21:07:18.787Z,99631.72
2022-08-27T21:09:55.908Z,99631.13
2022-08-27T21:12:25.659Z,99637.72
2022-08-27T21:14:55.768Z,99638.16
2022-08-27T21:17:24.439Z,99648.78
2022-08-27T21:19:52.567Z,99658.59
2022-08-27T21:22:20.428Z,99665.47
2022-08-27T21:24:47.734Z,99657.06
2022-08-27T21:27:15.146Z,99660.31
2022-08-27T21:29:44.638Z,99659.66
2022-08-27T21:32:13.148Z,99661.63
2022-08-27T21:34:41.804Z,99668.19
2022-08-27T21:37:11.020Z,99667.47
2022-08-27T21:39:38.439Z,99667.63
2022-08-27T21:42:05.550Z,99658.53
2022-08-27T21:44:32.671Z,99659.22
2022-08-27T21:47:00.844Z,99665.75
2022-08-27T21:49:28.056Z,99658.22
2022-08-27T21:51:55.171Z,99666.78
2022-08-27T21:54:23.503Z,99658.91
2022-08-27T21:56:53.033Z,99658.75
2022-08-27T21:59:20.326Z,99649.53
2022-08-27T22:01:48.947Z,99650.13
2022-08-27T22:04:17.477Z,99656.78
2022-08-27T22:06:44.790Z,99651.00
2022-08-27T22:09:11.567Z,99639.72
2022-08-27T22:11:41.715Z,99636.59
2022-08-27T22:14:11.957Z,99633.00
2022-08-27T22:16:39.250Z,99632.53
2022-08-27T22:19:06.197Z,99644.44
2022-08-27T22:21:34.411Z,99642.91
2022-08-27T22:24:01.211Z,99647.41
2022-08-27T22:26:27.976Z,99648.50
2022-08-27T22:28:55.096Z,99658.00
2022-08-27T22:31:22.005Z,99687.63
2022-08-27T22:33:48.930Z,99702.97
2022-08-27T22:36:16.240Z,99715.00
2022-08-27T22:38:43.115Z,99729.91
2022-08-27T22:41:10.016Z,99725.78
2022-08-27T22:43:37.590Z,99727.34
2022-08-27T22:46:04.625Z,99744.34
2022-08-27T22:48:31.500Z,99749.72
2022-08-27T22:50:58.948Z,99752.78
2022-08-27T22:53:26.126Z,99765.69
2022-08-27T22:55:52.994Z,99804.31
2022-08-27T22:58:24.404Z,99849.31
2022-08-27T23:00:52.578Z,99856.72
2022-08-27T23:03:20.302Z,99852.47
2022-08-27T23:05:47.217Z,99821.16
2022-08-27T23:08:14.338Z,99790.88
2022-08-27T23:10:42.371Z,99753.09
2022-08-27T23:13:10.046Z,99749.25
2022-08-27T23:15:37.641Z,99742.19
2022-08-27T23:18:04.785Z,99739.03
2022-08-27T23:20:31.672Z,99747.75
2022-08-27T23:22:58.671Z,99742.25
2022-08-27T23:25:44.157Z,99761.47
2022-08-27T23:28:14.673Z,99787.53
2022-08-27T23:30:42.937Z,99809.66
2022-08-27T23:33:09.786Z,99828.38
2022-08-27T23:35:36.927Z,99827.56
2022-08-27T23:38:04.352Z,99840.19
2022-08-27T23:40:31.339Z,99831.78
2022-08-27T23:42:58.196Z,99828.09
2022-08-27T23:45:26.030Z,99833.59
2022-08-27T23:47:53.019Z,99839.09
2022-08-27T23:50:20.171Z,99843.88
2022-08-27T23:52:49.010Z,99844.91
2022-08-27T23:55:16.073Z,99838.59
2022-08-27T23:57:43.241Z,99846.50
